createdAt,value
2018-09-22T00:00:17.652Z,13.30
2018-09-22T00:02:48.538Z,13.25
2018-09-22T00:05:19.479Z,13.16
2018-09-22T00:07:50.441Z,13.34
2018-09-22T00:10:21.484Z,13.14
2018-09-22T00:12:52.477Z,13.06
2018-09-22T00:15:23.515Z,13.17
2018-09-22T00:17:54.468Z,13.08
2018-09-22T00:20:25.489Z,13.09
2018-09-22T00:22:56.481Z,13.10
2018-09-22T00:25:27.495Z,12.96
2018-09-22T00:27:58.553Z,12.97
2018-09-22T00:30:29.489Z,12.91
2018-09-22T00:33:00.804Z,12.97
2018-09-22T00:35:31.573Z,12.97
2018-09-22T00:38:02.496Z,12.98
2018-09-22T00:40:33.472Z,12.92
2018-09-22T00:43:04.505Z,12.99
2018-09-22T00:45:35.471Z,12.88
2018-09-22T00:48:06.523Z,12.78
2018-09-22T00:50:37.476Z,12.75
2018-09-22T00:53:08.908Z,12.79
2018-09-22T00:55:39.773Z,12.79
2018-09-22T00:58:10.604Z,12.79
2018-09-22T01:00:41.515Z,12.86
2018-09-22T01:03:12.490Z,12.75
2018-09-22T01:05:43.505Z,12.78
2018-09-22T01:08:14.468Z,12.73
2018-09-22T01:10:45.481Z,12.74
2018-09-22T01:13:16.557Z,12.75
2018-09-22T01:15:50.493Z,12.81
2018-09-22T01:18:21.444Z,12.75
2018-09-22T01:20:52.437Z,12.77
2018-09-22T01:23:23.484Z,12.73
2018-09-22T01:25:54.428Z,12.76
2018-09-22T01:28:25.478Z,12.84
2018-09-22T01:30:56.457Z,12.86
2018-09-22T01:33:27.453Z,12.86
2018-09-22T01:35:58.481Z,12.94
2018-09-22T01:38:29.456Z,13.00
2018-09-22T01:41:00.446Z,12.89
2018-09-22T01:43:31.457Z,12.96
2018-09-22T01:46:02.425Z,12.83
2018-09-22T01:48:33.449Z,12.90
2018-09-22T01:51:04.500Z,12.79
2018-09-22T01:53:35.459Z,12.88
2018-09-22T01:56:06.457Z,12.79
2018-09-22T01:58:37.436Z,12.78
2018-09-22T02:01:08.445Z,12.79
2018-09-22T02:03:39.437Z,12.75
2018-09-22T02:06:10.421Z,12.89
2018-09-22T02:08:41.433Z,12.78
2018-09-22T02:11:12.400Z,12.76
2018-09-22T02:13:43.499Z,12.85
2018-09-22T02:16:14.442Z,12.72
2018-09-22T02:18:45.436Z,12.73
2018-09-22T02:21:16.433Z,12.66
2018-09-22T02:23:47.481Z,12.73
2018-09-22T02:26:18.429Z,12.59
2018-09-22T02:28:49.449Z,12.68
2018-09-22T02:31:20.455Z,12.63
2018-09-22T02:33:51.460Z,12.61
2018-09-22T02:36:22.453Z,12.58
2018-09-22T02:38:53.441Z,12.58
2018-09-22T02:41:24.411Z,12.59
2018-09-22T02:43:55.513Z,12.64
2018-09-22T02:46:26.434Z,12.66
2018-09-22T02:48:57.436Z,12.60
2018-09-22T02:51:28.448Z,12.71
2018-09-22T02:53:59.444Z,12.58
2018-09-22T02:56:30.471Z,12.73
2018-09-22T02:59:01.457Z,12.61
2018-09-22T03:01:32.426Z,12.84
2018-09-22T03:04:03.733Z,12.60
2018-09-22T03:06:34.551Z,12.56
2018-09-22T03:09:07.652Z,12.56
2018-09-22T03:11:38.466Z,12.62
2018-09-22T03:14:10.014Z,12.53
2018-09-22T03:16:41.550Z,12.51
2018-09-22T03:19:12.463Z,12.66
2018-09-22T03:21:43.463Z,12.56
2018-09-22T03:24:14.474Z,12.54
2018-09-22T03:26:45.461Z,12.51
2018-09-22T03:29:16.417Z,12.64
2018-09-22T03:31:47.436Z,12.60
2018-09-22T03:34:18.466Z,12.61
2018-09-22T03:39:33.355Z,12.55
2018-09-22T03:42:04.336Z,12.49
2018-09-22T03:44:35.390Z,12.59
2018-09-22T03:47:06.655Z,12.43
2018-09-22T03:49:37.477Z,12.48
2018-09-22T03:52:08.457Z,12.55
2018-09-22T03:54:39.450Z,12.59
2018-09-22T03:57:11.508Z,12.53
2018-09-22T03:59:42.449Z,12.47
2018-09-22T04:02:13.421Z,12.44
2018-09-22T04:04:44.400Z,12.46
2018-09-22T04:07:15.405Z,12.44
2018-09-22T04:09:46.409Z,12.42
2018-09-22T04:12:17.417Z,12.47
2018-09-22T04:14:48.446Z,12.46
2018-09-22T04:17:19.476Z,12.44
2018-09-22T04:19:50.441Z,12.41
2018-09-22T04:22:21.461Z,12.46
2018-09-22T04:24:52.481Z,12.43
2018-09-22T04:27:23.434Z,12.43
2018-09-22T04:29:54.444Z,12.42
2018-09-22T04:32:25.462Z,12.41
2018-09-22T04:34:59.293Z,12.45
2018-09-22T04:37:30.345Z,12.53
2018-09-22T04:40:01.382Z,12.40
2018-09-22T04:42:32.417Z,12.48
2018-09-22T04:45:03.441Z,12.40
2018-09-22T04:47:34.464Z,12.44
2018-09-22T04:52:45.465Z,12.49
2018-09-22T04:55:16.461Z,12.40
2018-09-22T04:57:47.445Z,12.46
2018-09-22T05:00:18.465Z,12.45
2018-09-22T05:02:49.468Z,12.47
2018-09-22T05:05:20.461Z,12.50
2018-09-22T05:07:51.472Z,12.31
2018-09-22T05:10:22.449Z,12.24
2018-09-22T05:12:53.443Z,12.36
2018-09-22T05:15:24.469Z,12.26
2018-09-22T05:17:55.410Z,12.33
2018-09-22T05:20:26.450Z,12.47
2018-09-22T05:22:57.439Z,12.29
2018-09-22T05:25:28.422Z,12.17
2018-09-22T05:27:59.460Z,12.22
2018-09-22T05:30:30.480Z,12.29
2018-09-22T05:33:01.460Z,12.30
2018-09-22T05:35:32.483Z,12.21
2018-09-22T05:38:03.444Z,12.27
2018-09-22T05:40:34.465Z,12.33
2018-09-22T05:43:05.433Z,12.23
2018-09-22T05:45:36.447Z,12.41
2018-09-22T05:48:07.477Z,12.28
2018-09-22T05:50:38.437Z,12.43
2018-09-22T05:55:52.297Z,12.41
2018-09-22T05:58:23.382Z,12.32
2018-09-22T06:00:54.465Z,12.38
2018-09-22T06:03:26.075Z,12.47
2018-09-22T06:05:57.228Z,12.50
2018-09-22T06:08:28.341Z,12.46
2018-09-22T06:10:59.311Z,12.72
2018-09-22T06:13:30.356Z,12.65
2018-09-22T06:16:01.349Z,12.64
2018-09-22T06:18:32.364Z,12.70
2018-09-22T06:21:03.469Z,12.80
2018-09-22T06:23:34.587Z,12.68
2018-09-22T06:26:05.527Z,12.79
2018-09-22T06:28:36.472Z,12.55
2018-09-22T06:31:07.507Z,12.77
2018-09-22T06:33:38.445Z,12.75
2018-09-22T06:36:09.496Z,12.81
2018-09-22T06:38:40.438Z,12.72
2018-09-22T06:41:11.417Z,12.58
2018-09-22T06:43:42.461Z,12.55
2018-09-22T06:46:13.483Z,12.82
2018-09-22T06:48:45.400Z,12.71
2018-09-22T06:51:16.436Z,12.79
2018-09-22T06:53:47.646Z,12.73
2018-09-22T06:56:18.577Z,12.54
2018-09-22T06:58:49.509Z,12.73
2018-09-22T07:01:20.608Z,12.60
2018-09-22T07:03:51.645Z,12.82
2018-09-22T07:06:22.630Z,12.92
2018-09-22T07:08:53.509Z,12.91
2018-09-22T07:11:24.484Z,12.88
2018-09-22T07:13:55.580Z,12.78
2018-09-22T07:16:26.494Z,13.06
2018-09-22T07:18:57.452Z,13.06
2018-09-22T07:21:33.523Z,12.80
2018-09-22T07:24:04.525Z,12.85
2018-09-22T07:26:35.663Z,12.86
2018-09-22T07:29:06.587Z,13.23
2018-09-22T07:31:37.497Z,12.84
2018-09-22T07:34:08.497Z,12.99
2018-09-22T07:36:39.473Z,13.00
2018-09-22T07:39:12.578Z,13.07
2018-09-22T07:41:46.777Z,13.14
2018-09-22T07:44:17.633Z,13.39
2018-09-22T07:46:48.626Z,13.25
2018-09-22T07:49:19.542Z,13.25
2018-09-22T07:51:50.569Z,13.55
2018-09-22T07:54:21.521Z,13.37
2018-09-22T07:56:52.482Z,13.42
2018-09-22T07:59:23.470Z,13.71
2018-09-22T08:01:54.515Z,13.81
2018-09-22T08:04:25.464Z,14.00
2018-09-22T08:06:56.518Z,14.18
2018-09-22T08:09:27.528Z,14.38
2018-09-22T08:11:58.514Z,14.70
2018-09-22T08:14:29.462Z,14.88
2018-09-22T08:17:00.465Z,14.53
2018-09-22T08:19:31.458Z,15.11
2018-09-22T08:22:02.522Z,15.34
2018-09-22T08:24:33.480Z,15.29
2018-09-22T08:27:04.477Z,15.22
2018-09-22T08:29:35.517Z,15.66
2018-09-22T08:32:06.517Z,15.47
2018-09-22T08:34:37.537Z,15.83
2018-09-22T08:37:08.768Z,15.83
2018-09-22T08:39:39.456Z,15.63
2018-09-22T08:42:10.441Z,15.79
2018-09-22T08:44:41.458Z,15.20
2018-09-22T08:47:12.577Z,15.46
2018-09-22T08:49:43.552Z,15.85
2018-09-22T08:52:14.474Z,15.76
2018-09-22T08:54:45.486Z,16.15
2018-09-22T08:57:16.457Z,16.20
2018-09-22T08:59:47.461Z,16.64
2018-09-22T09:02:18.503Z,16.53
2018-09-22T09:04:49.500Z,16.79
2018-09-22T09:07:20.569Z,16.69
2018-09-22T09:09:51.476Z,16.54
2018-09-22T09:12:24.497Z,16.92
2018-09-22T09:14:55.689Z,16.68
2018-09-22T09:17:26.575Z,16.45
2018-09-22T09:19:57.510Z,16.95
2018-09-22T09:22:28.459Z,16.72
2018-09-22T09:24:59.457Z,16.58
2018-09-22T09:27:30.521Z,16.70
2018-09-22T09:30:01.538Z,16.83
2018-09-22T09:32:32.542Z,16.77
2018-09-22T09:35:03.477Z,16.93
2018-09-22T09:37:34.661Z,16.96
2018-09-22T09:40:05.558Z,17.13
2018-09-22T09:42:36.485Z,16.85
2018-09-22T09:45:07.498Z,17.18
2018-09-22T09:47:38.513Z,17.44
2018-09-22T09:50:09.457Z,16.89
2018-09-22T09:52:40.526Z,16.84
2018-09-22T09:55:11.469Z,16.95
2018-09-22T09:57:42.476Z,17.07
2018-09-22T10:00:13.494Z,17.00
2018-09-22T10:02:44.518Z,17.07
2018-09-22T10:05:15.547Z,16.81
2018-09-22T10:07:46.522Z,16.79
2018-09-22T10:10:17.543Z,16.91
2018-09-22T10:12:48.517Z,17.17
2018-09-22T10:15:19.775Z,17.07
2018-09-22T10:17:50.766Z,17.36
2018-09-22T10:20:21.627Z,17.91
2018-09-22T10:22:52.483Z,17.59
2018-09-22T10:25:23.479Z,17.46
2018-09-22T10:27:54.521Z,17.67
2018-09-22T10:30:25.537Z,17.92
2018-09-22T10:32:56.497Z,17.67
2018-09-22T10:35:27.497Z,18.05
2018-09-22T10:37:58.496Z,18.57
2018-09-22T10:40:29.501Z,17.98
2018-09-22T10:43:00.530Z,17.91
2018-09-22T10:45:31.534Z,18.05
2018-09-22T10:48:02.522Z,18.19
2018-09-22T10:50:33.522Z,17.86
2018-09-22T10:53:04.845Z,18.23
2018-09-22T10:55:35.601Z,18.37
2018-09-22T10:58:06.638Z,18.36
2018-09-22T11:00:37.621Z,18.16
2018-09-22T11:03:08.652Z,18.82
2018-09-22T11:05:39.465Z,18.41
2018-09-22T11:08:10.521Z,18.26
2018-09-22T11:10:41.480Z,18.41
2018-09-22T11:13:12.578Z,18.44
2018-09-22T11:15:43.571Z,18.63
2018-09-22T11:18:14.602Z,18.55
2018-09-22T11:20:45.488Z,18.50
2018-09-22T11:23:16.594Z,18.49
2018-09-22T11:25:47.677Z,18.79
2018-09-22T11:28:18.580Z,19.78
2018-09-22T11:30:49.479Z,20.17
2018-09-22T11:33:21.406Z,20.96
2018-09-22T11:35:52.490Z,20.90
2018-09-22T11:38:23.527Z,20.89
2018-09-22T11:40:54.501Z,21.29
2018-09-22T11:43:25.773Z,21.25
2018-09-22T11:45:56.608Z,21.52
2018-09-22T11:48:27.505Z,20.66
2018-09-22T11:50:58.492Z,21.51
2018-09-22T11:53:29.516Z,21.54
2018-09-22T11:56:00.497Z,20.77
2018-09-22T11:58:31.517Z,20.23
2018-09-22T12:01:02.490Z,20.24
2018-09-22T12:03:33.523Z,19.86
2018-09-22T12:06:04.589Z,19.94
2018-09-22T12:08:35.534Z,20.77
2018-09-22T12:11:06.542Z,19.97
2018-09-22T12:13:37.503Z,20.14
2018-09-22T12:16:08.568Z,20.08
2018-09-22T12:18:39.530Z,19.55
2018-09-22T12:21:10.510Z,19.86
2018-09-22T12:23:41.524Z,19.54
2018-09-22T12:26:12.477Z,20.40
2018-09-22T12:28:43.457Z,19.74
2018-09-22T12:31:14.503Z,19.69
2018-09-22T12:33:45.522Z,19.69
2018-09-22T12:36:16.490Z,19.74
2018-09-22T12:38:48.293Z,19.74
2018-09-22T12:41:19.361Z,19.90
2018-09-22T12:43:50.362Z,19.57
2018-09-22T12:46:21.405Z,20.04
2018-09-22T12:48:52.517Z,20.18
2018-09-22T12:51:23.691Z,20.22
2018-09-22T12:53:54.569Z,19.84
2018-09-22T12:56:25.491Z,19.74
2018-09-22T12:58:56.528Z,20.08
2018-09-22T13:01:27.517Z,20.18
2018-09-22T13:03:58.519Z,20.45
2018-09-22T13:06:29.601Z,20.41
2018-09-22T13:09:00.521Z,20.17
2018-09-22T13:11:31.498Z,20.12
2018-09-22T13:14:02.469Z,19.66
2018-09-22T13:16:33.711Z,19.54
2018-09-22T13:19:04.553Z,19.51
2018-09-22T13:21:35.479Z,19.50
2018-09-22T13:24:06.530Z,19.51
2018-09-22T13:26:37.555Z,19.49
2018-09-22T13:29:08.526Z,19.25
2018-09-22T13:31:39.488Z,19.26
2018-09-22T13:34:10.489Z,19.16
2018-09-22T13:36:41.474Z,18.99
2018-09-22T13:39:13.546Z,19.32
2018-09-22T13:41:44.471Z,19.47
2018-09-22T13:44:15.509Z,18.97
2018-09-22T13:46:46.462Z,19.30
2018-09-22T13:49:17.510Z,19.23
2018-09-22T13:51:49.401Z,19.11
2018-09-22T13:54:20.478Z,19.18
2018-09-22T13:56:51.452Z,19.34
2018-09-22T13:59:22.545Z,19.28
2018-09-22T14:01:53.494Z,19.06
2018-09-22T14:04:24.634Z,19.16
2018-09-22T14:06:55.497Z,18.87
2018-09-22T14:10:37.587Z,18.94
2018-09-22T14:13:08.846Z,18.71
2018-09-22T14:15:39.696Z,18.92
2018-09-22T14:18:10.542Z,18.93
2018-09-22T14:20:41.554Z,19.01
2018-09-22T14:23:12.514Z,19.05
2018-09-22T14:25:43.496Z,18.89
2018-09-22T14:28:14.476Z,18.85
2018-09-22T14:30:45.469Z,18.81
2018-09-22T14:33:16.440Z,19.00
2018-09-22T14:35:47.498Z,18.85
2018-09-22T14:38:18.418Z,19.08
2018-09-22T14:40:49.448Z,19.06
2018-09-22T14:43:20.512Z,18.90
2018-09-22T14:45:51.446Z,18.92
2018-09-22T14:48:22.518Z,18.69
2018-09-22T14:50:53.515Z,18.69
2018-09-22T14:53:24.481Z,18.88
2018-09-22T14:55:55.513Z,18.85
2018-09-22T14:58:26.518Z,19.08
2018-09-22T15:00:57.464Z,19.14
2018-09-22T15:03:28.500Z,19.18
2018-09-22T15:05:59.493Z,18.98
2018-09-22T15:08:30.446Z,18.92
2018-09-22T15:11:01.512Z,19.15
2018-09-22T15:13:32.464Z,18.98
2018-09-22T15:16:03.593Z,18.95
2018-09-22T15:18:34.526Z,19.07
2018-09-22T15:21:05.627Z,19.02
2018-09-22T15:23:36.594Z,18.88
2018-09-22T15:26:07.494Z,18.55
2018-09-22T15:28:38.559Z,18.55
2018-09-22T15:31:09.526Z,18.71
2018-09-22T15:33:40.515Z,18.48
2018-09-22T15:36:11.564Z,18.44
2018-09-22T15:38:42.492Z,18.52
2018-09-22T15:41:13.489Z,18.49
2018-09-22T15:43:44.477Z,18.43
2018-09-22T15:46:15.501Z,18.38
2018-09-22T15:48:46.485Z,18.44
2018-09-22T15:51:18.301Z,18.59
2018-09-22T15:53:49.364Z,18.52
2018-09-22T15:56:20.390Z,18.62
2018-09-22T15:58:51.502Z,18.51
2018-09-22T16:01:22.506Z,18.62
2018-09-22T16:03:53.453Z,18.30
2018-09-22T16:06:24.506Z,18.32
2018-09-22T16:08:55.470Z,18.24
2018-09-22T16:11:26.505Z,18.18
2018-09-22T16:13:57.491Z,18.25
2018-09-22T16:16:28.458Z,18.17
2018-09-22T16:18:59.497Z,18.09
2018-09-22T16:21:30.565Z,18.19
2018-09-22T16:24:01.678Z,17.71
2018-09-22T16:26:32.567Z,17.59
2018-09-22T16:29:03.488Z,17.63
2018-09-22T16:31:34.496Z,17.70
2018-09-22T16:34:05.469Z,17.65
2018-09-22T16:36:36.488Z,17.53
2018-09-22T16:39:09.904Z,17.51
2018-09-22T16:41:41.186Z,17.38
2018-09-22T16:44:12.362Z,17.32
2018-09-22T16:46:43.373Z,17.28
2018-09-22T16:49:14.448Z,17.11
2018-09-22T16:51:45.566Z,17.02
2018-09-22T16:54:16.492Z,16.93
2018-09-22T16:56:47.523Z,16.79
2018-09-22T16:59:18.553Z,16.74
2018-09-22T17:01:49.525Z,16.62
2018-09-22T17:04:20.518Z,16.48
2018-09-22T17:06:51.472Z,16.42
2018-09-22T17:09:22.484Z,16.48
2018-09-22T17:11:53.490Z,16.33
2018-09-22T17:14:24.504Z,16.38
2018-09-22T17:16:55.449Z,16.31
2018-09-22T17:19:26.477Z,16.34
2018-09-22T17:21:57.512Z,16.25
2018-09-22T17:24:28.474Z,16.41
2018-09-22T17:26:59.480Z,16.26
2018-09-22T17:29:30.580Z,16.32
2018-09-22T17:32:01.569Z,16.24
2018-09-22T17:34:32.521Z,16.38
2018-09-22T17:37:03.545Z,16.26
2018-09-22T17:39:34.483Z,16.03
2018-09-22T17:42:05.542Z,16.05
2018-09-22T17:44:36.512Z,16.12
2018-09-22T17:47:07.541Z,15.98
2018-09-22T17:49:38.589Z,15.92
2018-09-22T17:52:09.285Z,15.85
2018-09-22T17:54:40.345Z,15.84
2018-09-22T17:57:11.400Z,15.58
2018-09-22T17:59:42.508Z,15.54
2018-09-22T18:02:13.519Z,15.64
2018-09-22T18:04:44.496Z,15.16
2018-09-22T18:07:15.545Z,15.27
2018-09-22T18:09:46.558Z,15.29
2018-09-22T18:12:17.499Z,15.19
2018-09-22T18:14:48.531Z,15.21
2018-09-22T18:17:19.517Z,15.10
2018-09-22T18:19:50.473Z,14.97
2018-09-22T18:22:21.465Z,14.90
2018-09-22T18:24:52.462Z,15.05
2018-09-22T18:27:23.481Z,14.99
2018-09-22T18:29:54.550Z,14.99
2018-09-22T18:32:26.024Z,14.92
2018-09-22T18:34:57.346Z,14.87
2018-09-22T18:37:28.417Z,14.87
2018-09-22T18:39:59.551Z,14.88
2018-09-22T18:42:30.518Z,14.73
2018-09-22T18:45:01.499Z,14.82
2018-09-22T18:47:32.518Z,14.62
2018-09-22T18:50:03.506Z,14.72
2018-09-22T18:52:34.533Z,14.83
2018-09-22T18:55:05.609Z,14.75
2018-09-22T18:57:36.549Z,14.81
2018-09-22T19:00:07.656Z,14.78
2018-09-22T19:02:38.579Z,14.76
2018-09-22T19:05:09.493Z,14.78
2018-09-22T19:07:40.483Z,14.65
2018-09-22T19:12:30.394Z,14.70
2018-09-22T19:15:35.544Z,14.66
2018-09-22T19:18:11.034Z,14.71
2018-09-22T19:20:52.396Z,14.74
2018-09-22T19:23:27.014Z,14.76
2018-09-22T19:26:16.331Z,14.78
2018-09-22T19:28:51.015Z,14.66
2018-09-22T19:31:25.717Z,14.62
2018-09-22T19:34:01.590Z,14.56
2018-09-22T19:36:40.438Z,14.69
2018-09-22T19:39:19.821Z,14.68
2018-09-22T19:41:55.578Z,14.75
2018-09-22T19:44:30.485Z,14.76
2018-09-22T19:47:08.022Z,14.81
2018-09-22T19:49:46.054Z,14.67
2018-09-22T19:52:20.841Z,14.76
2018-09-22T19:54:51.593Z,14.81
2018-09-22T19:57:22.525Z,14.74
2018-09-22T19:59:53.453Z,14.73
2018-09-22T20:02:24.565Z,14.88
2018-09-22T20:04:55.497Z,14.85
2018-09-22T20:07:26.507Z,14.90
2018-09-22T20:09:57.503Z,14.87
2018-09-22T20:12:28.472Z,14.85
2018-09-22T20:14:59.533Z,14.75
2018-09-22T20:17:30.569Z,14.69
2018-09-22T20:20:01.488Z,14.86
2018-09-22T20:22:32.513Z,14.86
2018-09-22T20:25:03.502Z,14.93
2018-09-22T20:27:34.530Z,14.88
2018-09-22T20:30:05.546Z,14.83
2018-09-22T20:32:36.561Z,14.87
2018-09-22T20:35:07.539Z,14.87
2018-09-22T20:37:38.490Z,14.92
2018-09-22T20:40:09.489Z,14.85
2018-09-22T20:42:40.508Z,14.81
2018-09-22T20:45:11.562Z,14.88
2018-09-22T20:47:42.568Z,14.76
2018-09-22T20:50:13.514Z,14.65
2018-09-22T20:52:44.492Z,14.59
2018-09-22T20:55:15.495Z,14.65
2018-09-22T20:57:46.503Z,14.56
2018-09-22T21:00:17.498Z,14.60
2018-09-22T21:02:48.514Z,14.50
2018-09-22T21:05:19.474Z,14.43
2018-09-22T21:07:50.461Z,14.56
2018-09-22T21:10:21.488Z,14.60
2018-09-22T21:12:52.437Z,14.51
2018-09-22T21:15:23.457Z,14.44
2018-09-22T21:17:54.457Z,14.47
2018-09-22T21:20:25.501Z,14.40
2018-09-22T21:22:56.464Z,14.41
2018-09-22T21:25:27.480Z,14.24
2018-09-22T21:27:58.467Z,14.33
2018-09-22T21:30:29.481Z,14.30
2018-09-22T21:33:00.488Z,14.23
2018-09-22T21:35:31.460Z,14.39
2018-09-22T21:38:02.460Z,14.08
2018-09-22T21:40:34.223Z,14.11
2018-09-22T21:43:05.338Z,14.06
2018-09-22T21:45:36.420Z,14.09
2018-09-22T21:48:07.472Z,14.07
2018-09-22T21:50:38.481Z,14.03
2018-09-22T21:53:09.467Z,13.93
2018-09-22T21:55:40.473Z,14.12
2018-09-22T21:58:11.491Z,14.24
2018-09-22T22:00:42.477Z,14.15
2018-09-22T22:03:13.505Z,14.15
2018-09-22T22:05:44.500Z,13.99
2018-09-22T22:08:15.761Z,14.17
2018-09-22T22:10:47.346Z,14.06
2018-09-22T22:13:18.345Z,14.01
2018-09-22T22:15:49.348Z,14.18
2018-09-22T22:18:20.395Z,14.06
2018-09-22T22:20:51.485Z,14.13
2018-09-22T22:23:22.858Z,14.05
2018-09-22T22:25:53.573Z,14.04
2018-09-22T22:28:24.509Z,13.96
2018-09-22T22:30:55.445Z,13.90
2018-09-22T22:33:26.459Z,14.06
2018-09-22T22:35:57.485Z,13.91
2018-09-22T22:38:28.427Z,13.97
2018-09-22T22:40:59.519Z,13.90
2018-09-22T22:43:30.413Z,13.98
2018-09-22T22:46:01.482Z,14.02
2018-09-22T22:48:32.460Z,13.89
2018-09-22T22:51:03.453Z,13.96
2018-09-22T22:53:34.417Z,13.86
2018-09-22T22:56:05.628Z,13.93
2018-09-22T22:58:36.831Z,13.86
2018-09-22T23:01:08.716Z,13.95
2018-09-22T23:03:39.533Z,13.86
2018-09-22T23:06:10.497Z,13.90
2018-09-22T23:08:41.448Z,13.97
2018-09-22T23:11:12.456Z,13.93
2018-09-22T23:13:43.561Z,13.98
2018-09-22T23:16:14.464Z,13.99
2018-09-22T23:18:45.436Z,13.97
2018-09-22T23:21:16.478Z,14.07
2018-09-22T23:23:47.440Z,13.96
2018-09-22T23:26:18.456Z,13.93
2018-09-22T23:28:49.453Z,13.85
2018-09-22T23:31:20.490Z,13.99
2018-09-22T23:33:51.459Z,14.03
2018-09-22T23:36:22.426Z,13.74
2018-09-22T23:38:53.457Z,13.70
2018-09-22T23:41:24.517Z,13.75
2018-09-22T23:43:55.398Z,13.58
2018-09-22T23:46:26.377Z,13.48
2018-09-22T23:48:57.389Z,13.44
2018-09-22T23:51:28.465Z,13.55
2018-09-22T23:53:59.433Z,13.34
2018-09-22T23:56:30.431Z,13.11
2018-09-22T23:59:01.405Z,13.26
